Abilene, Texas
Current Conditions -  °F | °C
As of 12:52 PM on Friday 31 Oct 2014 (Local Time) from KABI Reporting Station
Clear Clear  
Wind Chill: 66°   Ceiling: Unl
Heat Index: 66°   Visibility: 10mi
Dew Point: 33°   Wind: 12mph
Humidity: 29%   Direction: 30°NNE
Pressure: 30.4"   Gusts: NA
Location:  32.45°N, 99.74°W
Report Text: KABI 311752Z 03010KT 10SM CLR 19/01 A3040 RMK AO2 SLP277 T01890006 10189 20089 50000
Loading
Personal Weather Stations






























Interactive Weather Map
Tropical Storm Tracking
New forecast layout! Learn more

10-Day Weather Forecast

Advertisements
Track Severe Weather on mobile